createdAt,value
2023-01-31T00:02:35.485Z,100396.09
2023-01-31T00:05:40.149Z,100375.78
2023-01-31T00:08:43.289Z,100398.31
2023-01-31T00:11:45.635Z,100393.78
2023-01-31T00:14:47.595Z,100404.34
2023-01-31T00:17:55.628Z,100387.91
2023-01-31T00:20:58.081Z,100389.41
2023-01-31T00:24:01.242Z,100384.03
2023-01-31T00:27:04.083Z,100386.72
2023-01-31T00:30:10.732Z,100390.06
2023-01-31T00:33:15.780Z,100385.38
2023-01-31T00:36:25.103Z,100382.34
2023-01-31T00:39:30.450Z,100372.78
2023-01-31T00:42:33.638Z,100376.81
2023-01-31T00:45:37.850Z,100385.06
2023-01-31T00:48:40.802Z,100383.84
2023-01-31T00:51:46.131Z,100387.72
2023-01-31T00:54:48.889Z,100377.63
2023-01-31T00:57:51.663Z,100377.97
2023-01-31T01:01:24.372Z,100384.88
2023-01-31T01:04:31.265Z,100379.00
2023-01-31T01:07:34.431Z,100377.13
2023-01-31T01:10:37.393Z,100375.44
2023-01-31T01:13:40.516Z,100374.94
2023-01-31T01:16:42.749Z,100376.47
2023-01-31T01:19:44.842Z,100374.94
2023-01-31T01:22:47.191Z,100373.28
2023-01-31T01:25:49.301Z,100370.91
2023-01-31T01:28:55.783Z,100353.97
2023-01-31T01:31:58.386Z,100363.03
2023-01-31T01:35:00.776Z,100369.41
2023-01-31T01:38:02.822Z,100353.28
2023-01-31T01:41:05.604Z,100348.78
2023-01-31T01:44:41.449Z,100358.50
2023-01-31T01:47:55.377Z,100343.03
2023-01-31T01:51:04.099Z,100350.28
2023-01-31T01:54:13.238Z,100350.59
2023-01-31T01:57:19.156Z,100338.31
2023-01-31T02:00:30.170Z,100324.88
2023-01-31T02:03:32.485Z,100341.03
2023-01-31T02:06:39.184Z,100325.38
2023-01-31T02:10:04.681Z,100336.47
2023-01-31T02:13:07.179Z,100336.31
2023-01-31T02:16:11.207Z,100331.78
2023-01-31T02:19:44.689Z,100330.94
2023-01-31T02:23:16.747Z,100334.47
2023-01-31T02:26:49.541Z,100338.81
2023-01-31T02:30:19.165Z,100328.75
2023-01-31T02:33:50.412Z,100328.94
2023-01-31T02:37:15.680Z,100333.31
2023-01-31T02:40:32.722Z,100327.28
2023-01-31T02:44:06.253Z,100328.59
2023-01-31T02:47:27.161Z,100328.94
2023-01-31T02:51:08.286Z,100342.00
2023-01-31T02:54:21.493Z,100338.31
2023-01-31T02:57:23.756Z,100334.63
2023-01-31T03:00:27.508Z,100348.59
2023-01-31T03:03:33.093Z,100344.06
2023-01-31T03:06:35.158Z,100345.56
2023-01-31T03:09:52.827Z,100346.09
2023-01-31T03:13:11.151Z,100344.03
2023-01-31T03:16:55.916Z,100331.78
2023-01-31T03:20:09.656Z,100338.03
2023-01-31T03:23:20.296Z,100348.59
2023-01-31T03:26:24.912Z,100349.75
2023-01-31T03:29:30.283Z,100343.69
2023-01-31T03:32:42.344Z,100345.72
2023-01-31T03:35:51.549Z,100345.38
2023-01-31T03:39:05.309Z,100348.78
2023-01-31T03:42:16.153Z,100350.44
2023-01-31T03:45:21.718Z,100353.78
2023-01-31T03:48:32.469Z,100354.28
2023-01-31T03:51:38.139Z,100350.75
2023-01-31T03:54:47.567Z,100355.78
2023-01-31T03:57:54.561Z,100354.66
2023-01-31T04:01:02.402Z,100347.91
2023-01-31T04:04:10.808Z,100355.63
2023-01-31T04:07:13.391Z,100355.81
2023-01-31T04:10:19.083Z,100357.66
2023-01-31T04:13:22.474Z,100343.53
2023-01-31T04:16:24.721Z,100337.81
2023-01-31T04:19:26.943Z,100345.22
2023-01-31T04:22:29.037Z,100354.47
2023-01-31T04:25:32.775Z,100344.72
2023-01-31T04:28:35.535Z,100358.66
2023-01-31T04:31:38.054Z,100352.28
2023-01-31T04:34:40.308Z,100357.84
2023-01-31T04:37:43.010Z,100358.81
2023-01-31T04:40:45.162Z,100365.41
2023-01-31T04:43:47.200Z,100356.66
2023-01-31T04:46:49.585Z,100364.69
2023-01-31T04:49:51.871Z,100358.66
2023-01-31T04:52:53.961Z,100364.38
2023-01-31T04:55:56.579Z,100351.91
2023-01-31T04:58:58.607Z,100374.94
2023-01-31T05:02:02.249Z,100373.47
2023-01-31T05:05:07.226Z,100388.38
2023-01-31T05:08:15.603Z,100384.69
2023-01-31T05:11:18.200Z,100389.91
2023-01-31T05:14:21.389Z,100395.28
2023-01-31T05:17:26.095Z,100395.97
2023-01-31T05:20:32.657Z,100395.78
2023-01-31T05:23:39.162Z,100396.44
2023-01-31T05:26:47.861Z,100398.97
2023-01-31T05:29:50.252Z,100404.69
2023-01-31T05:32:52.797Z,100402.34
2023-01-31T05:35:54.867Z,100399.81
2023-01-31T05:38:56.893Z,100403.34
2023-01-31T05:41:59.288Z,100404.03
2023-01-31T05:45:01.613Z,100407.34
2023-01-31T05:48:03.919Z,100405.03
2023-01-31T05:51:06.316Z,100416.78
2023-01-31T05:54:08.857Z,100417.78
2023-01-31T05:57:10.832Z,100409.53
2023-01-31T06:00:14.638Z,100414.44
2023-01-31T06:03:17.321Z,100419.13
2023-01-31T06:06:19.758Z,100431.56
2023-01-31T06:09:21.740Z,100432.41
2023-01-31T06:12:23.719Z,100430.53
2023-01-31T06:15:25.869Z,100434.75
2023-01-31T06:18:27.876Z,100410.53
2023-01-31T06:21:30.724Z,100430.03
2023-01-31T06:24:33.096Z,100431.72
2023-01-31T06:27:35.090Z,100430.72
2023-01-31T06:30:38.404Z,100442.47
2023-01-31T06:33:47.217Z,100435.59
2023-01-31T06:36:49.926Z,100442.63
2023-01-31T06:39:51.947Z,100449.03
2023-01-31T06:42:54.082Z,100457.09
2023-01-31T06:45:56.349Z,100453.38
2023-01-31T06:48:58.366Z,100444.50
2023-01-31T06:52:01.313Z,100450.38
2023-01-31T06:55:03.565Z,100458.41
2023-01-31T06:58:05.761Z,100469.03
2023-01-31T07:01:10.349Z,100475.25
2023-01-31T07:04:12.463Z,100468.69
2023-01-31T07:07:14.419Z,100473.56
2023-01-31T07:10:18.224Z,100474.22
2023-01-31T07:13:20.501Z,100466.97
2023-01-31T07:16:23.919Z,100485.81
2023-01-31T07:19:25.984Z,100494.38
2023-01-31T07:22:28.461Z,100485.66
2023-01-31T07:25:32.601Z,100500.25
2023-01-31T07:28:34.806Z,100495.22
2023-01-31T07:31:36.922Z,100502.94
2023-01-31T07:34:39.943Z,100503.63
2023-01-31T07:37:43.647Z,100503.28
2023-01-31T07:40:45.682Z,100508.00
2023-01-31T07:43:51.426Z,100514.22
2023-01-31T07:46:54.929Z,100508.84
2023-01-31T07:49:57.041Z,100494.22
2023-01-31T07:52:59.288Z,100516.56
2023-01-31T07:56:16.689Z,100519.41
2023-01-31T07:59:18.944Z,100516.56
2023-01-31T08:02:39.532Z,100529.34
2023-01-31T08:05:42.198Z,100527.31
2023-01-31T08:08:46.106Z,100530.31
2023-01-31T08:11:48.411Z,100527.47
2023-01-31T08:14:50.383Z,100539.88
2023-01-31T08:17:53.300Z,100531.81
2023-01-31T08:20:57.504Z,100552.38
2023-01-31T08:23:59.605Z,100560.06
2023-01-31T08:27:01.909Z,100558.72
2023-01-31T08:30:04.767Z,100569.50
2023-01-31T08:33:06.972Z,100565.31
2023-01-31T08:36:13.290Z,100570.03
2023-01-31T08:39:15.379Z,100585.34
2023-01-31T08:42:19.002Z,100579.78
2023-01-31T08:45:21.864Z,100584.00
2023-01-31T08:48:24.374Z,100591.56
2023-01-31T08:51:27.874Z,100587.69
2023-01-31T08:54:30.335Z,100587.34
2023-01-31T08:57:32.567Z,100599.28
2023-01-31T09:00:34.830Z,100599.28
2023-01-31T09:03:37.792Z,100599.94
2023-01-31T09:06:40.052Z,100594.06
2023-01-31T09:09:42.144Z,100600.47
2023-01-31T09:12:44.278Z,100597.25
2023-01-31T09:15:46.393Z,100602.81
2023-01-31T09:18:50.062Z,100602.31
2023-01-31T09:21:52.223Z,100599.78
2023-01-31T09:24:56.467Z,100605.00
2023-01-31T09:27:58.542Z,100594.56
2023-01-31T09:31:10.155Z,100592.03
2023-01-31T09:34:13.923Z,100585.16
2023-01-31T09:37:16.407Z,100586.50
2023-01-31T09:40:24.318Z,100597.78
2023-01-31T09:43:31.005Z,100587.16
2023-01-31T09:46:41.036Z,100572.84
2023-01-31T09:49:52.995Z,100586.13
2023-01-31T09:52:55.011Z,100587.81
2023-01-31T09:56:06.712Z,100578.91
2023-01-31T09:59:28.450Z,100582.25
2023-01-31T10:02:49.207Z,100588.13
2023-01-31T10:05:56.029Z,100580.22
2023-01-31T10:09:24.604Z,100586.25
2023-01-31T10:13:03.746Z,100581.91
2023-01-31T10:16:05.903Z,100591.50
2023-01-31T10:19:15.628Z,100583.53
2023-01-31T10:22:41.343Z,100579.16
2023-01-31T10:25:46.366Z,100579.50
2023-01-31T10:29:05.370Z,100578.81
2023-01-31T10:32:31.241Z,100569.56
2023-01-31T10:35:42.967Z,100570.59
2023-01-31T10:38:56.413Z,100576.13
2023-01-31T10:42:26.166Z,100566.19
2023-01-31T10:45:33.799Z,100558.59
2023-01-31T10:48:35.887Z,100554.38
2023-01-31T10:52:17.041Z,100564.28
2023-01-31T10:55:30.904Z,100557.03
2023-01-31T10:58:33.502Z,100541.56
2023-01-31T11:01:36.599Z,100552.25
2023-01-31T11:04:41.859Z,100529.44
2023-01-31T11:07:44.221Z,100553.09
2023-01-31T11:10:54.602Z,100535.94
2023-01-31T11:14:00.901Z,100545.97
2023-01-31T11:17:04.654Z,100546.97
2023-01-31T11:20:07.895Z,100543.13
2023-01-31T11:23:14.742Z,100548.03
2023-01-31T11:26:30.523Z,100550.53
2023-01-31T11:29:36.034Z,100557.59
2023-01-31T11:32:38.343Z,100556.63
2023-01-31T11:35:52.573Z,100555.50
2023-01-31T11:38:55.136Z,100564.56
2023-01-31T11:41:57.143Z,100557.78
2023-01-31T11:45:01.882Z,100549.09
2023-01-31T11:48:23.900Z,100555.97
2023-01-31T11:51:31.978Z,100561.50
2023-01-31T11:54:34.995Z,100560.88
2023-01-31T11:57:39.893Z,100560.91
2023-01-31T12:00:57.377Z,100563.94
2023-01-31T12:04:05.100Z,100566.28
2023-01-31T12:07:42.786Z,100565.81
2023-01-31T12:10:46.415Z,100559.41
2023-01-31T12:13:51.629Z,100572.38
2023-01-31T12:16:56.202Z,100568.78
2023-01-31T12:20:25.421Z,100564.22
2023-01-31T12:23:46.370Z,100563.75
2023-01-31T12:26:55.545Z,100555.34
2023-01-31T12:30:00.275Z,100571.00
2023-01-31T12:33:08.187Z,100574.22
2023-01-31T12:36:28.024Z,100574.53
2023-01-31T12:39:58.422Z,100576.19
2023-01-31T12:43:03.796Z,100569.84
2023-01-31T12:46:14.867Z,100584.66
2023-01-31T12:49:16.960Z,100579.56
2023-01-31T12:52:25.336Z,100575.53
2023-01-31T12:56:06.787Z,100584.81
2023-01-31T12:59:16.709Z,100585.03
2023-01-31T13:02:39.340Z,100581.97
2023-01-31T13:06:02.014Z,100582.78
2023-01-31T13:09:34.801Z,100585.16
2023-01-31T13:12:38.185Z,100580.59
2023-01-31T13:15:49.728Z,100590.88
2023-01-31T13:18:56.593Z,100580.94
2023-01-31T13:22:03.273Z,100578.91
2023-01-31T13:25:14.364Z,100586.13
2023-01-31T13:28:25.502Z,100585.94
2023-01-31T13:31:32.238Z,100590.31
2023-01-31T13:34:44.385Z,100588.28
2023-01-31T13:37:49.459Z,100594.84
2023-01-31T13:40:55.691Z,100590.00
2023-01-31T13:43:59.415Z,100589.59
2023-01-31T13:47:19.835Z,100592.28
2023-01-31T13:50:45.421Z,100601.59
2023-01-31T13:53:54.261Z,100589.84
2023-01-31T13:57:31.060Z,100590.50
2023-01-31T14:00:42.416Z,100596.03
2023-01-31T14:04:16.114Z,100595.03
2023-01-31T14:07:21.209Z,100596.06
2023-01-31T14:10:29.123Z,100596.91
2023-01-31T14:13:33.864Z,100602.09
2023-01-31T14:16:40.129Z,100596.38
2023-01-31T14:19:45.946Z,100602.28
2023-01-31T14:23:27.823Z,100612.25
2023-01-31T14:26:42.088Z,100607.34
2023-01-31T14:29:46.291Z,100609.06
2023-01-31T14:33:04.131Z,100609.88
2023-01-31T14:36:18.205Z,100620.81
2023-01-31T14:40:02.315Z,100621.34
2023-01-31T14:43:10.731Z,100629.94
2023-01-31T14:46:12.913Z,100637.34
2023-01-31T14:49:44.710Z,100640.56
2023-01-31T14:53:09.631Z,100629.63
2023-01-31T14:56:37.281Z,100670.84
2023-01-31T15:00:02.293Z,100678.28
2023-01-31T15:03:07.433Z,100694.66
2023-01-31T15:06:23.372Z,100698.69
2023-01-31T15:09:35.713Z,100687.78
2023-01-31T15:12:56.109Z,100703.41
2023-01-31T15:15:59.185Z,100694.84
2023-01-31T15:19:32.419Z,100698.38
2023-01-31T15:22:41.548Z,100688.28
2023-01-31T15:25:45.931Z,100698.88
2023-01-31T15:28:50.448Z,100704.09
2023-01-31T15:31:58.449Z,100701.38
2023-01-31T15:35:07.232Z,100708.47
2023-01-31T15:38:51.381Z,100717.09
2023-01-31T15:41:53.463Z,100711.16
2023-01-31T15:45:31.059Z,100714.88
2023-01-31T15:48:33.128Z,100727.66
2023-01-31T15:51:35.234Z,100709.97
2023-01-31T15:54:38.218Z,100711.69
2023-01-31T15:58:02.374Z,100721.59
2023-01-31T16:01:05.502Z,100725.47
2023-01-31T16:04:07.720Z,100729.31
2023-01-31T16:07:17.313Z,100736.25
2023-01-31T16:10:19.714Z,100745.00
2023-01-31T16:13:24.228Z,100742.28
2023-01-31T16:16:27.775Z,100733.56
2023-01-31T16:19:33.805Z,100743.19
2023-01-31T16:22:37.149Z,100753.97
2023-01-31T16:25:39.407Z,100750.38
2023-01-31T16:28:46.103Z,100753.44
2023-01-31T16:31:53.870Z,100769.28
2023-01-31T16:35:08.099Z,100768.56
2023-01-31T16:38:29.644Z,100776.16
2023-01-31T16:41:49.165Z,100771.13
2023-01-31T16:44:51.957Z,100759.34
2023-01-31T16:47:55.392Z,100772.63
2023-01-31T16:51:02.563Z,100774.34
2023-01-31T16:54:23.238Z,100781.72
2023-01-31T16:57:37.588Z,100790.00
2023-01-31T17:00:43.913Z,100786.59
2023-01-31T17:04:00.120Z,100791.28
2023-01-31T17:07:19.417Z,100792.31
2023-01-31T17:10:36.745Z,100797.34
2023-01-31T17:13:39.375Z,100791.28
2023-01-31T17:16:43.160Z,100783.53
2023-01-31T17:19:55.416Z,100784.22
2023-01-31T17:23:03.000Z,100786.06
2023-01-31T17:26:05.771Z,100796.81
2023-01-31T17:29:08.079Z,100793.47
2023-01-31T17:32:13.456Z,100805.41
2023-01-31T17:35:28.655Z,100797.69
2023-01-31T17:38:30.782Z,100811.66
2023-01-31T17:41:34.731Z,100809.97
2023-01-31T17:44:36.799Z,100812.84
2023-01-31T17:47:38.834Z,100816.88
2023-01-31T17:50:43.573Z,100784.53
2023-01-31T17:53:50.359Z,100818.91
2023-01-31T17:56:53.095Z,100820.06
2023-01-31T17:59:56.343Z,100810.53
2023-01-31T18:02:58.713Z,100810.31
2023-01-31T18:06:08.478Z,100819.25
2023-01-31T18:09:10.605Z,100821.56
2023-01-31T18:12:14.095Z,100821.56
2023-01-31T18:15:16.481Z,100827.66
2023-01-31T18:18:18.619Z,100828.66
2023-01-31T18:21:23.449Z,100817.53
2023-01-31T18:24:25.756Z,100814.69
2023-01-31T18:27:27.921Z,100831.34
2023-01-31T18:30:31.263Z,100835.06
2023-01-31T18:33:33.388Z,100829.31
2023-01-31T18:36:35.516Z,100832.72
2023-01-31T18:39:37.675Z,100834.06
2023-01-31T18:42:39.744Z,100850.41
2023-01-31T18:45:45.409Z,100834.56
2023-01-31T18:48:47.506Z,100841.81
2023-01-31T18:51:50.052Z,100834.38
2023-01-31T18:54:54.432Z,100846.00
2023-01-31T18:57:57.215Z,100835.72
2023-01-31T19:01:09.676Z,100846.50
2023-01-31T19:04:11.935Z,100845.81
2023-01-31T19:07:14.041Z,100843.47
2023-01-31T19:10:16.578Z,100842.13
2023-01-31T19:13:18.673Z,100850.53
2023-01-31T19:16:29.254Z,100838.56
2023-01-31T19:19:31.904Z,100825.59
2023-01-31T19:22:34.052Z,100836.72
2023-01-31T19:25:39.574Z,100846.31
2023-01-31T19:28:41.985Z,100838.41
2023-01-31T19:31:44.972Z,100844.63
2023-01-31T19:34:47.067Z,100851.84
2023-01-31T19:37:49.036Z,100847.31
2023-01-31T19:40:54.462Z,100847.47
2023-01-31T19:43:58.713Z,100860.09
2023-01-31T19:47:01.982Z,100863.81
2023-01-31T19:50:05.185Z,100861.28
2023-01-31T19:53:07.794Z,100865.47
2023-01-31T19:56:10.101Z,100862.78
2023-01-31T19:59:12.800Z,100858.88
2023-01-31T20:02:30.947Z,100869.69
2023-01-31T20:05:34.932Z,100865.66
2023-01-31T20:08:37.534Z,100868.69
2023-01-31T20:11:39.676Z,100873.56
2023-01-31T20:14:41.988Z,100871.81
2023-01-31T20:17:45.291Z,100858.38
2023-01-31T20:20:47.849Z,100870.53
2023-01-31T20:23:50.189Z,100870.84
2023-01-31T20:26:52.422Z,100870.84
2023-01-31T20:29:54.774Z,100864.25
2023-01-31T20:32:57.004Z,100883.47
2023-01-31T20:35:59.447Z,100881.09
2023-01-31T20:39:01.891Z,100875.03
2023-01-31T20:42:04.142Z,100878.41
2023-01-31T20:45:08.263Z,100877.72
2023-01-31T20:48:10.514Z,100888.13
2023-01-31T20:51:12.797Z,100887.13
2023-01-31T20:54:14.788Z,100874.81
2023-01-31T20:57:18.964Z,100885.75
2023-01-31T21:00:24.422Z,100860.53
2023-01-31T21:03:27.722Z,100867.44
2023-01-31T21:06:29.900Z,100849.94
2023-01-31T21:09:34.287Z,100866.59
2023-01-31T21:12:36.455Z,100881.22
2023-01-31T21:15:38.641Z,100871.00
2023-01-31T21:18:44.486Z,100873.03
2023-01-31T21:21:46.584Z,100868.47
2023-01-31T21:24:48.665Z,100867.97
2023-01-31T21:27:52.058Z,100873.34
2023-01-31T21:31:05.432Z,100862.06
2023-01-31T21:34:07.933Z,100877.59
2023-01-31T21:37:13.792Z,100864.56
2023-01-31T21:40:16.602Z,100865.28
2023-01-31T21:43:21.571Z,100880.25
2023-01-31T21:46:28.101Z,100875.84
2023-01-31T21:49:30.254Z,100873.97
2023-01-31T21:52:33.518Z,100869.28
2023-01-31T21:55:36.159Z,100877.72
2023-01-31T21:58:39.216Z,100876.03
2023-01-31T22:01:41.421Z,100879.88
2023-01-31T22:04:43.570Z,100871.50
2023-01-31T22:07:46.441Z,100880.41
2023-01-31T22:10:50.841Z,100871.81
2023-01-31T22:13:56.120Z,100868.78
2023-01-31T22:16:58.399Z,100874.88
2023-01-31T22:20:00.617Z,100858.22
2023-01-31T22:23:03.066Z,100871.00
2023-01-31T22:26:31.631Z,100866.09
2023-01-31T22:29:35.250Z,100863.59
2023-01-31T22:32:37.383Z,100874.81
2023-01-31T22:35:39.595Z,100871.94
2023-01-31T22:38:42.746Z,100868.47
2023-01-31T22:41:44.964Z,100859.88
2023-01-31T22:44:49.779Z,100864.91
2023-01-31T22:47:54.919Z,100849.75
2023-01-31T22:51:00.642Z,100855.00
2023-01-31T22:54:05.550Z,100854.66
2023-01-31T22:57:07.507Z,100843.53
2023-01-31T23:00:10.581Z,100853.97
2023-01-31T23:03:12.695Z,100849.78
2023-01-31T23:06:16.200Z,100858.41
2023-01-31T23:09:18.361Z,100851.81
2023-01-31T23:12:21.039Z,100854.31
2023-01-31T23:15:23.082Z,100849.78
2023-01-31T23:18:26.281Z,100845.41
2023-01-31T23:21:28.494Z,100853.34
2023-01-31T23:24:30.546Z,100845.91
2023-01-31T23:27:33.024Z,100835.47
2023-01-31T23:30:35.330Z,100825.53
2023-01-31T23:33:37.935Z,100839.00
2023-01-31T23:36:40.381Z,100832.09
2023-01-31T23:39:44.229Z,100824.19
2023-01-31T23:42:46.274Z,100821.69
2023-01-31T23:45:48.653Z,100840.84
2023-01-31T23:48:50.649Z,100833.28
2023-01-31T23:51:53.070Z,100831.09
2023-01-31T23:54:55.144Z,100839.31
2023-01-31T23:57:57.314Z,100834.94
